createdAt,value
2022-09-07T00:01:10.499Z,93.16
2022-09-07T00:03:37.336Z,92.95
2022-09-07T00:06:12.745Z,93.10
2022-09-07T00:08:41.518Z,93.20
2022-09-07T00:11:14.313Z,96.20
2022-09-07T00:13:43.475Z,95.92
2022-09-07T00:16:17.366Z,94.56
2022-09-07T00:18:46.230Z,93.97
2022-09-07T00:21:15.744Z,93.31
2022-09-07T00:23:42.797Z,93.01
2022-09-07T00:26:20.517Z,93.34
2022-09-07T00:28:48.478Z,93.08
2022-09-07T00:31:22.698Z,93.10
2022-09-07T00:33:51.989Z,93.29
2022-09-07T00:36:21.633Z,93.29
2022-09-07T00:38:48.550Z,93.59
2022-09-07T00:41:16.683Z,93.34
2022-09-07T00:43:48.875Z,94.05
2022-09-07T00:46:22.401Z,94.64
2022-09-07T00:49:17.351Z,94.88
2022-09-07T00:51:53.722Z,94.71
2022-09-07T00:54:44.842Z,95.14
2022-09-07T00:57:12.202Z,94.64
2022-09-07T00:59:48.110Z,94.50
2022-09-07T01:02:17.549Z,94.61
2022-09-07T01:04:49.750Z,94.64
2022-09-07T01:07:16.620Z,94.95
2022-09-07T01:09:46.857Z,94.76
2022-09-07T01:12:14.312Z,94.65
2022-09-07T01:14:46.593Z,95.36
2022-09-07T01:17:49.278Z,95.29
2022-09-07T01:20:50.830Z,95.86
2022-09-07T01:23:55.280Z,95.62
2022-09-07T01:26:50.184Z,95.18
2022-09-07T01:29:37.633Z,95.80
2022-09-07T01:32:41.806Z,95.70
2022-09-07T01:35:22.365Z,95.67
2022-09-07T01:38:15.010Z,95.63
2022-09-07T01:41:14.606Z,95.86
2022-09-07T01:44:12.229Z,96.29
2022-09-07T01:46:52.959Z,95.40
2022-09-07T01:49:25.346Z,95.71
2022-09-07T01:51:59.326Z,96.20
2022-09-07T01:54:39.145Z,96.18
2022-09-07T01:57:15.022Z,96.64
2022-09-07T01:59:48.794Z,96.18
2022-09-07T02:02:22.118Z,96.38
2022-09-07T02:05:04.054Z,96.72
2022-09-07T02:07:44.041Z,95.91
2022-09-07T02:10:16.782Z,95.28
2022-09-07T02:12:53.228Z,95.15
2022-09-07T02:15:39.273Z,94.48
2022-09-07T02:18:09.051Z,94.64
2022-09-07T02:20:39.363Z,94.90
2022-09-07T02:23:17.590Z,96.51
2022-09-07T02:25:53.717Z,96.03
2022-09-07T02:28:29.774Z,95.82
2022-09-07T02:30:56.813Z,95.09
2022-09-07T02:33:24.295Z,95.40
2022-09-07T02:35:52.164Z,95.13
2022-09-07T02:38:19.610Z,96.32
2022-09-07T02:40:54.987Z,95.83
2022-09-07T02:43:23.540Z,95.94
2022-09-07T02:46:30.461Z,95.47
2022-09-07T02:49:19.415Z,94.82
2022-09-07T02:51:55.028Z,94.49
2022-09-07T02:54:52.903Z,94.76
2022-09-07T02:57:49.908Z,95.60
2022-09-07T03:00:25.977Z,95.22
2022-09-07T03:03:21.013Z,95.10
2022-09-07T03:06:04.996Z,95.04
2022-09-07T03:08:51.009Z,95.00
2022-09-07T03:11:18.550Z,94.74
2022-09-07T03:13:45.341Z,95.77
2022-09-07T03:16:14.637Z,95.64
2022-09-07T03:18:43.157Z,96.37
2022-09-07T03:21:10.974Z,96.21
2022-09-07T03:23:37.879Z,95.53
2022-09-07T03:26:05.416Z,95.14
2022-09-07T03:28:32.353Z,94.72
2022-09-07T03:31:01.394Z,94.82
2022-09-07T03:33:28.197Z,94.36
2022-09-07T03:36:01.720Z,94.05
2022-09-07T03:38:30.689Z,93.92
2022-09-07T03:41:03.349Z,93.71
2022-09-07T03:43:31.232Z,93.72
2022-09-07T03:46:04.636Z,93.56
2022-09-07T03:48:35.593Z,94.15
2022-09-07T03:51:07.272Z,94.05
2022-09-07T03:53:37.188Z,93.51
2022-09-07T03:56:12.473Z,93.30
2022-09-07T03:58:39.659Z,93.27
2022-09-07T04:01:13.318Z,93.26
2022-09-07T04:03:40.157Z,93.44
2022-09-07T04:06:07.085Z,94.59
2022-09-07T04:08:36.224Z,94.96
2022-09-07T04:11:06.404Z,94.54
2022-09-07T04:13:35.889Z,94.16
2022-09-07T04:16:23.587Z,94.07
2022-09-07T04:18:51.824Z,94.46
2022-09-07T04:21:18.957Z,95.24
2022-09-07T04:23:45.989Z,95.49
2022-09-07T04:26:29.126Z,94.78
2022-09-07T04:28:56.776Z,94.35
2022-09-07T04:31:24.706Z,95.05
2022-09-07T04:33:54.807Z,95.35
2022-09-07T04:36:24.928Z,95.80
2022-09-07T04:39:00.869Z,95.53
2022-09-07T04:41:31.156Z,95.38
2022-09-07T04:44:02.345Z,95.50
2022-09-07T04:46:33.907Z,96.64
2022-09-07T04:49:07.073Z,96.69
2022-09-07T04:51:35.359Z,96.66
2022-09-07T04:54:04.581Z,96.83
2022-09-07T04:56:32.717Z,97.17
2022-09-07T04:59:01.949Z,97.16
2022-09-07T05:01:29.616Z,96.51
2022-09-07T05:03:56.454Z,96.17
2022-09-07T05:06:23.810Z,96.68
2022-09-07T05:08:54.426Z,96.53
2022-09-07T05:11:28.448Z,97.41
2022-09-07T05:14:00.709Z,97.21
2022-09-07T05:16:28.922Z,97.27
2022-09-07T05:19:01.757Z,97.93
2022-09-07T05:21:35.280Z,97.82
2022-09-07T05:24:04.113Z,98.34
2022-09-07T05:26:34.150Z,97.88
2022-09-07T05:32:08.653Z,98.93
2022-09-07T05:34:35.534Z,99.05
2022-09-07T05:37:02.736Z,99.47
2022-09-07T05:39:29.796Z,99.33
2022-09-07T05:41:56.912Z,98.74
2022-09-07T05:47:11.842Z,98.20
2022-09-07T05:49:38.646Z,99.65
2022-09-07T05:52:05.494Z,100.00
2022-09-07T05:54:32.286Z,100.00
2022-09-07T05:56:59.081Z,99.95
2022-09-07T05:59:25.881Z,100.00
2022-09-07T06:01:53.335Z,100.00
2022-09-07T06:04:20.323Z,100.00
2022-09-07T06:06:59.255Z,100.00
2022-09-07T06:09:34.449Z,100.00
2022-09-07T06:12:05.423Z,100.00
2022-09-07T06:14:33.539Z,100.00
2022-09-07T06:17:00.546Z,100.00
2022-09-07T06:19:27.368Z,100.00
2022-09-07T06:21:54.302Z,100.00
2022-09-07T06:24:21.120Z,100.00
2022-09-07T06:26:47.925Z,100.00
2022-09-07T06:29:14.851Z,100.00
2022-09-07T06:34:29.603Z,99.41
2022-09-07T06:36:56.778Z,98.98
2022-09-07T06:39:23.604Z,99.15
2022-09-07T06:44:25.315Z,99.39
2022-09-07T06:47:07.476Z,100.00
2022-09-07T06:49:34.329Z,100.00
2022-09-07T06:52:01.113Z,100.00
2022-09-07T06:57:14.833Z,100.00
2022-09-07T06:59:41.661Z,100.00
2022-09-07T07:02:13.610Z,100.00
2022-09-07T07:04:41.369Z,100.00
2022-09-07T07:07:15.052Z,100.00
2022-09-07T07:09:42.625Z,100.00
2022-09-07T07:12:10.876Z,100.00
2022-09-07T07:14:41.087Z,100.00
2022-09-07T07:17:11.138Z,100.00
2022-09-07T07:19:37.910Z,100.00
2022-09-07T07:22:18.784Z,100.00
2022-09-07T07:24:51.512Z,100.00
2022-09-07T07:27:18.335Z,100.00
2022-09-07T07:29:46.203Z,100.00
2022-09-07T07:32:12.986Z,100.00
2022-09-07T07:34:39.743Z,100.00
2022-09-07T07:37:06.736Z,100.00
2022-09-07T07:42:21.222Z,97.20
2022-09-07T07:44:48.736Z,96.16
2022-09-07T07:47:15.827Z,95.42
2022-09-07T07:49:42.686Z,95.66
2022-09-07T07:54:56.342Z,94.59
2022-09-07T07:57:23.319Z,94.74
2022-09-07T07:59:50.170Z,93.50
2022-09-07T08:02:17.648Z,91.20
2022-09-07T08:04:44.821Z,91.59
2022-09-07T08:07:15.269Z,91.43
2022-09-07T08:09:44.588Z,89.99
2022-09-07T08:12:16.727Z,90.22
2022-09-07T08:14:43.935Z,89.77
2022-09-07T08:17:15.019Z,88.64
2022-09-07T08:19:42.341Z,87.34
2022-09-07T08:22:10.906Z,86.26
2022-09-07T08:24:37.871Z,85.68
2022-09-07T08:27:05.007Z,84.51
2022-09-07T08:29:34.513Z,83.00
2022-09-07T08:32:04.542Z,82.25
2022-09-07T08:34:31.385Z,82.08
2022-09-07T08:36:58.407Z,82.12
2022-09-07T08:39:25.130Z,82.01
2022-09-07T08:41:51.736Z,80.59
2022-09-07T08:44:22.965Z,79.61
2022-09-07T08:46:56.494Z,78.60
2022-09-07T08:49:56.842Z,79.37
2022-09-07T08:52:39.106Z,76.59
2022-09-07T08:55:19.488Z,77.43
2022-09-07T08:58:51.323Z,76.71
2022-09-07T09:01:32.558Z,75.82
2022-09-07T09:04:17.011Z,75.04
2022-09-07T09:07:10.486Z,75.66
2022-09-07T09:10:10.730Z,74.65
2022-09-07T09:13:01.806Z,73.16
2022-09-07T09:15:44.854Z,73.48
2022-09-07T09:18:33.718Z,72.00
2022-09-07T09:21:01.272Z,72.04
2022-09-07T09:23:40.541Z,71.23
2022-09-07T09:26:13.067Z,70.53
2022-09-07T09:28:40.246Z,70.39
2022-09-07T09:31:15.863Z,69.92
2022-09-07T09:33:42.694Z,69.96
2022-09-07T09:36:31.782Z,69.22
2022-09-07T09:38:58.645Z,68.08
2022-09-07T09:41:27.063Z,66.76
2022-09-07T09:43:56.529Z,66.71
2022-09-07T09:46:34.363Z,65.54
2022-09-07T09:49:05.451Z,65.04
2022-09-07T09:54:43.928Z,64.44
2022-09-07T09:57:36.712Z,64.04
2022-09-07T10:00:10.519Z,63.60
2022-09-07T10:05:58.449Z,62.33
2022-09-07T10:08:33.421Z,62.23
2022-09-07T10:11:06.231Z,62.08
2022-09-07T10:13:46.886Z,62.68
2022-09-07T10:16:15.109Z,61.88
2022-09-07T10:18:58.810Z,59.96
2022-09-07T10:21:32.922Z,61.33
2022-09-07T10:24:05.736Z,58.77
2022-09-07T10:26:38.308Z,58.34
2022-09-07T10:29:12.557Z,58.21
2022-09-07T10:32:03.071Z,53.88
2022-09-07T10:34:48.507Z,54.19
2022-09-07T10:37:48.629Z,55.67
2022-09-07T10:40:53.072Z,52.44
2022-09-07T10:43:35.235Z,52.03
2022-09-07T10:49:33.721Z,51.72
2022-09-07T10:52:17.930Z,51.78
2022-09-07T10:54:55.280Z,50.85
2022-09-07T10:58:00.955Z,49.96
2022-09-07T11:00:49.622Z,48.45
2022-09-07T11:03:54.446Z,48.36
2022-09-07T11:06:41.525Z,46.74
2022-09-07T11:09:46.022Z,44.72
2022-09-07T11:12:36.962Z,45.26
2022-09-07T11:15:12.365Z,43.71
2022-09-07T11:17:49.355Z,43.96
2022-09-07T11:20:45.377Z,42.27
2022-09-07T11:23:20.316Z,43.83
2022-09-07T11:25:58.817Z,42.52
2022-09-07T11:29:29.178Z,42.11
2022-09-07T11:31:45.290Z,42.42
2022-09-07T11:34:26.793Z,41.67
2022-09-07T11:37:03.528Z,40.25
2022-09-07T11:39:36.545Z,39.06
2022-09-07T11:45:28.780Z,36.36
2022-09-07T11:48:05.028Z,37.40
2022-09-07T11:50:39.378Z,37.37
2022-09-07T11:53:19.009Z,38.11
2022-09-07T11:55:54.198Z,37.97
2022-09-07T11:58:20.846Z,38.09
2022-09-07T12:01:02.360Z,38.57
2022-09-07T12:04:06.624Z,39.07
2022-09-07T12:06:54.553Z,38.81
2022-09-07T12:09:46.453Z,39.40
2022-09-07T12:12:13.155Z,38.33
2022-09-07T12:15:30.605Z,36.05
2022-09-07T12:18:02.827Z,36.47
2022-09-07T12:20:48.973Z,36.02
2022-09-07T12:23:15.638Z,33.96
2022-09-07T12:25:48.194Z,35.12
2022-09-07T12:28:24.107Z,33.30
2022-09-07T12:30:56.187Z,33.93
2022-09-07T12:33:29.653Z,34.68
2022-09-07T12:35:59.090Z,34.77
2022-09-07T12:38:31.680Z,34.74
2022-09-07T12:41:04.469Z,34.84
2022-09-07T12:43:44.426Z,34.97
2022-09-07T12:46:40.929Z,35.36
2022-09-07T12:50:06.713Z,35.81
2022-09-07T12:53:08.866Z,36.13
2022-09-07T12:59:05.168Z,35.44
2022-09-07T13:01:55.988Z,36.56
2022-09-07T13:04:50.251Z,35.93
2022-09-07T13:07:51.569Z,36.26
2022-09-07T13:10:33.011Z,37.09
2022-09-07T13:13:17.793Z,36.51
2022-09-07T13:15:48.581Z,36.77
2022-09-07T13:18:27.502Z,35.09
2022-09-07T13:21:09.078Z,36.08
2022-09-07T13:23:45.489Z,36.39
2022-09-07T13:26:51.848Z,35.95
2022-09-07T13:29:24.638Z,35.84
2022-09-07T13:32:17.857Z,35.85
2022-09-07T13:34:55.203Z,35.49
2022-09-07T13:37:27.482Z,34.69
2022-09-07T13:39:58.109Z,35.62
2022-09-07T13:42:34.186Z,35.35
2022-09-07T13:45:07.326Z,34.93
2022-09-07T13:48:01.619Z,33.79
2022-09-07T13:50:34.426Z,34.47
2022-09-07T13:53:36.575Z,35.18
2022-09-07T13:56:36.850Z,35.17
2022-09-07T13:59:22.884Z,34.94
2022-09-07T14:01:50.779Z,35.57
2022-09-07T14:04:32.328Z,36.47
2022-09-07T14:07:13.142Z,35.37
2022-09-07T14:09:40.349Z,37.07
2022-09-07T14:12:16.749Z,37.11
2022-09-07T14:14:43.520Z,37.80
2022-09-07T14:17:16.859Z,38.57
2022-09-07T14:19:49.871Z,36.16
2022-09-07T14:22:24.619Z,36.34
2022-09-07T14:24:57.307Z,36.01
2022-09-07T14:27:36.857Z,35.25
2022-09-07T14:30:31.995Z,37.57
2022-09-07T14:33:17.323Z,37.48
2022-09-07T14:35:44.363Z,37.97
2022-09-07T14:38:14.244Z,36.73
2022-09-07T14:40:41.517Z,37.14
2022-09-07T14:43:27.716Z,36.84
2022-09-07T14:45:54.615Z,36.73
2022-09-07T14:48:31.496Z,35.58
2022-09-07T14:51:19.349Z,35.15
2022-09-07T14:53:55.869Z,34.85
2022-09-07T14:56:30.333Z,36.79
2022-09-07T14:58:57.155Z,36.58
2022-09-07T15:01:41.559Z,35.76
2022-09-07T15:04:21.275Z,35.85
2022-09-07T15:07:03.656Z,35.72
2022-09-07T15:09:37.105Z,35.52
2022-09-07T15:12:24.892Z,35.61
2022-09-07T15:15:21.435Z,36.99
2022-09-07T15:17:48.674Z,36.87
2022-09-07T15:20:47.560Z,37.46
2022-09-07T15:23:19.556Z,38.27
2022-09-07T15:25:53.562Z,39.83
2022-09-07T15:34:20.620Z,42.36
2022-09-07T15:36:51.013Z,42.76
2022-09-07T15:39:23.508Z,41.25
2022-09-07T15:41:51.640Z,42.08
2022-09-07T15:44:24.314Z,40.09
2022-09-07T15:49:47.412Z,39.89
2022-09-07T15:52:17.093Z,37.61
2022-09-07T15:54:44.148Z,39.64
2022-09-07T15:59:57.990Z,45.32
2022-09-07T16:05:11.636Z,43.27
2022-09-07T16:10:26.617Z,45.41
2022-09-07T16:13:02.251Z,47.14
2022-09-07T16:15:30.881Z,47.25
2022-09-07T16:17:57.681Z,49.43
2022-09-07T16:20:24.474Z,49.93
2022-09-07T16:25:39.510Z,49.58
2022-09-07T16:28:07.302Z,50.82
2022-09-07T16:30:38.927Z,50.94
2022-09-07T16:33:05.956Z,49.27
2022-09-07T16:35:33.057Z,48.91
2022-09-07T16:40:46.891Z,50.79
2022-09-07T16:43:13.682Z,52.15
2022-09-07T16:48:27.182Z,53.74
2022-09-07T16:51:01.240Z,54.65
2022-09-07T16:53:30.860Z,55.66
2022-09-07T16:56:05.998Z,54.16
2022-09-07T16:58:36.728Z,54.76
2022-09-07T17:01:06.717Z,55.48
2022-09-07T17:03:34.284Z,56.25
2022-09-07T17:06:01.198Z,56.13
2022-09-07T17:08:28.355Z,56.77
2022-09-07T17:11:23.708Z,56.39
2022-09-07T17:13:51.979Z,56.29
2022-09-07T17:16:23.301Z,56.37
2022-09-07T17:21:40.135Z,58.62
2022-09-07T17:24:09.778Z,57.09
2022-09-07T17:26:36.981Z,57.25
2022-09-07T17:29:04.159Z,57.56
2022-09-07T17:34:21.718Z,60.84
2022-09-07T17:36:48.568Z,61.24
2022-09-07T17:39:17.608Z,61.32
2022-09-07T17:41:47.382Z,62.36
2022-09-07T17:44:15.299Z,62.86
2022-09-07T17:46:42.299Z,62.52
2022-09-07T17:49:12.493Z,63.08
2022-09-07T17:51:39.835Z,62.34
2022-09-07T17:54:11.689Z,63.14
2022-09-07T17:56:40.472Z,63.07
2022-09-07T18:01:55.214Z,63.82
2022-09-07T18:04:22.920Z,64.24
2022-09-07T18:06:49.873Z,64.16
2022-09-07T18:09:17.508Z,64.75
2022-09-07T18:11:45.829Z,65.57
2022-09-07T18:14:14.360Z,66.12
2022-09-07T18:16:43.034Z,66.50
2022-09-07T18:19:11.897Z,68.16
2022-09-07T18:21:42.160Z,68.52
2022-09-07T18:24:18.258Z,69.28
2022-09-07T18:26:52.034Z,68.94
2022-09-07T18:29:32.401Z,70.60
2022-09-07T18:32:01.215Z,70.15
2022-09-07T18:34:31.889Z,70.90
2022-09-07T18:36:59.731Z,71.28
2022-09-07T18:39:27.451Z,73.11
2022-09-07T18:41:55.072Z,78.48
2022-09-07T18:47:08.894Z,77.79
2022-09-07T18:49:35.662Z,78.69
2022-09-07T18:54:50.537Z,82.40
2022-09-07T18:57:17.351Z,82.12
2022-09-07T18:59:44.159Z,82.85
2022-09-07T19:02:11.309Z,83.14
2022-09-07T19:07:29.652Z,84.07
2022-09-07T19:09:57.185Z,84.70
2022-09-07T19:12:24.573Z,85.95
2022-09-07T19:14:51.713Z,85.81
2022-09-07T19:17:19.089Z,86.72
2022-09-07T19:19:45.851Z,85.94
2022-09-07T19:22:12.646Z,85.47
2022-09-07T19:24:39.382Z,86.09
2022-09-07T19:27:07.341Z,86.32
2022-09-07T19:29:34.183Z,87.32
2022-09-07T19:32:07.803Z,86.72
2022-09-07T19:34:40.459Z,85.26
2022-09-07T19:37:10.213Z,85.40
2022-09-07T19:39:37.209Z,86.00
2022-09-07T19:42:06.140Z,86.28
2022-09-07T19:44:33.369Z,86.25
2022-09-07T19:47:01.003Z,86.70
2022-09-07T19:49:28.714Z,87.81
2022-09-07T19:51:55.559Z,87.98
2022-09-07T19:54:22.377Z,87.12
2022-09-07T19:56:49.253Z,88.32
2022-09-07T19:59:16.162Z,88.75
2022-09-07T20:01:46.498Z,90.04
2022-09-07T20:04:20.387Z,89.99
2022-09-07T20:06:50.272Z,89.59
2022-09-07T20:09:20.314Z,89.57
2022-09-07T20:11:48.165Z,89.05
2022-09-07T20:14:19.274Z,89.37
2022-09-07T20:16:46.065Z,89.89
2022-09-07T20:19:15.297Z,89.56
2022-09-07T20:21:42.822Z,90.27
2022-09-07T20:24:12.495Z,90.68
2022-09-07T20:26:39.471Z,90.53
2022-09-07T20:29:26.164Z,90.70
2022-09-07T20:31:54.087Z,91.08
2022-09-07T20:34:21.122Z,90.85
2022-09-07T20:36:50.472Z,91.45
2022-09-07T20:39:17.694Z,91.90
2022-09-07T20:41:44.567Z,92.62
2022-09-07T20:44:11.795Z,92.44
2022-09-07T20:46:39.088Z,92.57
2022-09-07T20:49:05.899Z,93.02
2022-09-07T20:51:32.901Z,92.86
2022-09-07T20:53:59.672Z,92.33
2022-09-07T20:56:30.385Z,92.38
2022-09-07T20:59:00.415Z,91.89
2022-09-07T21:01:28.609Z,91.28
2022-09-07T21:03:58.056Z,90.45
2022-09-07T21:06:26.976Z,89.98
2022-09-07T21:08:56.962Z,89.42
2022-09-07T21:11:32.467Z,89.31
2022-09-07T21:14:08.703Z,87.01
2022-09-07T21:16:36.301Z,87.54
2022-09-07T21:19:07.219Z,88.41
2022-09-07T21:21:38.921Z,88.76
2022-09-07T21:24:07.883Z,89.10
2022-09-07T21:26:34.838Z,88.97
2022-09-07T21:29:05.256Z,89.81
2022-09-07T21:31:34.302Z,89.68
2022-09-07T21:34:02.489Z,89.16
2022-09-07T21:36:29.740Z,89.21
2022-09-07T21:38:57.199Z,89.68
2022-09-07T21:41:25.192Z,89.47
2022-09-07T21:43:56.985Z,89.48
2022-09-07T21:46:24.479Z,89.79
2022-09-07T21:48:51.319Z,89.18
2022-09-07T21:51:18.653Z,89.33
2022-09-07T21:53:45.419Z,89.02
2022-09-07T21:56:14.366Z,89.43
2022-09-07T21:58:43.703Z,89.23
2022-09-07T22:01:17.267Z,89.85
2022-09-07T22:03:46.460Z,90.56
2022-09-07T22:06:14.435Z,90.91
2022-09-07T22:08:42.633Z,91.00
2022-09-07T22:11:15.249Z,89.63
2022-09-07T22:13:43.415Z,89.77
2022-09-07T22:16:10.436Z,91.50
2022-09-07T22:18:38.449Z,91.49
2022-09-07T22:21:07.904Z,92.11
2022-09-07T22:23:39.149Z,92.14
2022-09-07T22:26:07.106Z,92.22
2022-09-07T22:28:34.939Z,91.39
2022-09-07T22:31:09.557Z,91.44
2022-09-07T22:33:36.317Z,91.81
2022-09-07T22:36:18.897Z,91.80
2022-09-07T22:38:48.941Z,91.33
2022-09-07T22:41:27.967Z,92.78
2022-09-07T22:43:56.346Z,92.72
2022-09-07T22:46:26.380Z,93.18
2022-09-07T22:48:58.534Z,93.07
2022-09-07T22:51:26.830Z,93.31
2022-09-07T22:53:55.333Z,92.75
2022-09-07T22:56:26.244Z,93.53
2022-09-07T22:58:57.001Z,93.13
2022-09-07T23:01:24.784Z,92.89
2022-09-07T23:03:51.656Z,91.63
2022-09-07T23:06:24.552Z,91.03
2022-09-07T23:08:52.653Z,91.07
2022-09-07T23:11:19.887Z,90.95
2022-09-07T23:13:52.777Z,90.64
2022-09-07T23:16:20.691Z,91.20
2022-09-07T23:18:48.426Z,91.33
2022-09-07T23:21:17.132Z,91.00
2022-09-07T23:23:44.093Z,90.41
2022-09-07T23:26:10.880Z,90.65
2022-09-07T23:28:37.577Z,90.58
2022-09-07T23:31:04.339Z,91.97
2022-09-07T23:33:31.704Z,91.94
2022-09-07T23:36:02.160Z,92.28
2022-09-07T23:38:30.108Z,92.08
2022-09-07T23:40:57.880Z,91.18
2022-09-07T23:43:27.503Z,91.14
2022-09-07T23:45:54.710Z,92.24
2022-09-07T23:48:23.093Z,92.41
2022-09-07T23:50:50.108Z,93.06
2022-09-07T23:53:17.980Z,93.87
2022-09-07T23:55:46.650Z,94.83
2022-09-07T23:58:13.442Z,94.14
